Latest Weather Forecast - Tuesday, 13th November 2018 (12 noon)

Date: Tuesday 13th November, 2018
Valid from: 12:00 noon to 6:00 pm
Synopsis: A lower level trough system is affecting the islands
Forecast: Fair, hazy and breezy; becoming occasionally cloudy with few scattered showers and chance of isolated thunderstorms
Weather Advisory/Warning:

None

Winds: Easterly at 25 - 35 km/h (15 to 22 mph)
Sea Conditions: Moderate in open water; swells 1.2 m – 2.5m, increasing
Marine 
Advisory/Warning:
Small craft operators and sea bathers should exercise caution for increasing wave heights
Tides:
High: 12:25 am 10:09 am  
Low: 05:51 pm 04:22 am

Aviation WX

[Source: ADDS]
METAR
TVSA 201800Z 07005KT 9999 SCT022 30/25 Q1015 NOSIG =
TVSA 201700Z 2018/2118 07010KT 9999 FEW016CB SCT018 PROB30 TEMPO 2101/2115 TSRA SCT012CB BKN014
TAF
TVSA 201700Z 2018/2118 07010KT 9999 FEW016CB SCT018 PROB30 TEMPO 2101/2115 TSRA SCT012CB BKN014 =
SR / SS: 09:52 / 22:22 UTC (Sunrise Sunset 2019-08-20)